Time;durP1;ratioP1;P1;durP2;ratioP2;P2;SDS_P1;SDS_P2;PMS_P1;PMS_P2;Temp;Humidity;BMP_temperature;BMP_pressure;BME280_temperature;BME280_humidity;BME280_pressure;Samples;Min_cycle;Max_cycle;Signal;HPM_P1;HPM_P2
2022/06/16 00:01:50;;;;;;;7.35;6.20;;;;;;;19.66;76.04;99791.16;5071413;28;20035;-81
2022/06/16 00:04:15;;;;;;;7.53;6.22;;;;;;;19.86;75.10;99790.97;5071563;28;20043;-82
2022/06/16 00:06:41;;;;;;;7.97;6.63;;;;;;;19.83;74.88;99795.38;5070474;28;20063;-82
2022/06/16 00:09:06;;;;;;;7.93;6.18;;;;;;;19.89;74.57;99796.69;5073484;28;20103;-81
2022/06/16 00:11:32;;;;;;;14.52;6.18;;;;;;;19.86;74.98;99805.97;5074005;28;20112;-82
2022/06/16 00:13:57;;;;;;;9.93;7.65;;;;;;;19.79;75.18;99805.91;5075442;28;20082;-82
2022/06/16 00:16:23;;;;;;;8.88;6.18;;;;;;;19.87;74.76;99812.47;5075582;28;20082;-82
2022/06/16 00:18:49;;;;;;;13.85;7.90;;;;;;;19.88;74.76;99814.09;5075542;28;20622;-82
2022/06/16 00:21:16;;;;;;;13.02;7.85;;;;;;;19.73;75.22;99798.94;5073995;28;20086;-82
2022/06/16 00:23:42;;;;;;;9.70;7.05;;;;;;;19.74;75.08;99794.91;5075300;28;20021;-82
2022/06/16 00:26:13;;;;;;;7.82;6.65;;;;;;;19.83;74.83;99801.06;5074164;28;20585;-83
2022/06/16 00:28:40;;;;;;;9.35;6.80;;;;;;;19.90;74.56;99806.00;5075113;28;20421;-82
2022/06/16 00:31:07;;;;;;;10.98;6.90;;;;;;;19.87;74.69;99803.94;5077843;28;20043;-82
2022/06/16 00:33:33;;;;;;;9.23;7.03;;;;;;;19.68;75.47;99807.81;5093813;28;20463;-82
2022/06/16 00:35:59;;;;;;;8.38;6.63;;;;;;;19.67;75.46;99797.66;5095305;28;20474;-82
2022/06/16 00:38:26;;;;;;;11.10;6.07;;;;;;;19.83;74.54;99778.34;5089796;28;20497;-82
2022/06/16 00:40:52;;;;;;;10.77;5.75;;;;;;;19.69;75.40;99795.25;5075200;28;20032;-81
2022/06/16 00:43:18;;;;;;;9.18;6.45;;;;;;;19.81;74.88;99802.69;5073790;28;20443;-81
2022/06/16 00:45:47;;;;;;;7.28;6.47;;;;;;;19.83;74.68;99800.25;5079966;28;20019;-82
2022/06/16 00:48:38;;;;;;;8.95;7.10;;;;;;;19.84;74.52;99802.69;5093679;28;20051;-82
2022/06/16 00:51:06;;;;;;;7.38;6.50;;;;;;;19.75;74.77;99805.84;5093550;28;20491;-82
2022/06/16 00:53:33;;;;;;;13.98;6.72;;;;;;;19.80;74.37;99796.19;5093470;28;20026;-82
2022/06/16 00:56:00;;;;;;;8.50;6.63;;;;;;;19.83;73.84;99797.44;5080599;28;20021;-82
2022/06/16 00:58:28;;;;;;;9.63;7.53;;;;;;;19.92;73.63;99797.94;5073302;28;20119;-82
2022/06/16 01:00:54;;;;;;;12.93;7.85;;;;;;;19.96;73.32;99804.47;5074441;28;20078;-82
2022/06/16 01:06:19;;;;;;;11.55;7.88;;;;;;;19.88;74.38;99808.41;5074651;28;20031;-82
2022/06/16 01:08:46;;;;;;;11.35;7.47;;;;;;;19.88;73.84;99794.22;5074434;28;20451;-82
2022/06/16 01:14:19;;;;;;;10.25;7.18;;;;;;;19.95;74.04;99793.50;5081523;28;20428;-82
2022/06/16 01:16:47;;;;;;;9.95;6.55;;;;;;;19.89;74.52;99795.84;5074646;28;20485;-82
2022/06/16 01:19:41;;;;;;;15.30;7.80;;;;;;;19.83;74.85;99797.44;5074183;28;20028;-82
2022/06/16 01:22:17;;;;;;;10.30;6.97;;;;;;;19.81;74.89;99791.34;5072720;28;20031;-82
2022/06/16 01:24:45;;;;;;;10.02;6.18;;;;;;;19.82;74.96;99798.63;5072749;28;20028;-82
2022/06/16 01:27:26;;;;;;;9.77;6.80;;;;;;;19.86;75.12;99793.81;5074054;28;20082;-82
2022/06/16 01:29:54;;;;;;;9.70;8.57;;;;;;;19.98;74.46;99799.22;5072935;28;20025;-82
2022/06/16 01:32:44;;;;;;;10.40;7.63;;;;;;;19.89;74.92;99798.69;5074120;28;20024;-81
2022/06/16 01:35:54;;;;;;;11.07;6.78;;;;;;;19.94;74.45;99787.03;5073739;28;20696;-82
2022/06/16 01:38:35;;;;;;;9.77;7.43;;;;;;;20.00;74.60;99788.28;4995652;28;20030;-82
2022/06/16 01:41:20;;;;;;;11.02;7.28;;;;;;;19.85;74.75;99780.81;5012301;28;20816;-81
2022/06/16 01:44:09;;;;;;;9.45;7.10;;;;;;;19.73;75.18;99785.56;5063067;28;20036;-81
2022/06/16 01:46:38;;;;;;;9.77;8.02;;;;;;;19.74;75.46;99778.69;5073966;28;20103;-81
2022/06/16 01:49:28;;;;;;;17.13;8.75;;;;;;;19.56;76.51;99789.84;5074362;28;20111;-81
2022/06/16 01:52:00;;;;;;;9.75;7.43;;;;;;;19.69;75.93;99784.72;5086603;28;20020;-82
2022/06/16 01:54:35;;;;;;;14.48;10.07;;;;;;;19.61;75.90;99781.00;5073676;28;20020;-82
2022/06/16 01:57:04;;;;;;;14.20;9.45;;;;;;;19.71;75.43;99778.66;5072218;28;20017;-82
2022/06/16 01:59:47;;;;;;;11.57;9.63;;;;;;;19.73;75.31;99779.06;5072202;28;20131;-82
2022/06/16 02:02:17;;;;;;;14.27;10.07;;;;;;;19.73;75.16;99779.06;5081622;28;20089;-82
2022/06/16 02:04:58;;;;;;;14.73;10.02;;;;;;;19.83;74.73;99788.91;5092044;28;20117;-82
2022/06/16 02:07:52;;;;;;;13.82;9.63;;;;;;;19.72;74.85;99775.44;5092412;28;20028;-82
2022/06/16 02:10:24;;;;;;;13.65;11.77;;;;;;;19.85;74.67;99783.66;5093388;28;20440;-81
2022/06/16 02:12:57;;;;;;;20.17;12.13;;;;;;;19.82;74.63;99788.09;5092304;28;20387;-82
2022/06/16 02:15:41;;;;;;;19.17;10.90;;;;;;;19.87;74.65;99786.91;5093629;28;20031;-82
2022/06/16 02:18:10;;;;;;;16.40;10.88;;;;;;;19.83;74.09;99786.06;5092201;28;20028;-82
2022/06/16 02:21:08;;;;;;;14.10;10.63;;;;;;;19.74;74.14;99778.69;5090260;28;20036;-83
2022/06/16 02:23:34;;;;;;;16.55;11.38;;;;;;;19.72;74.55;99789.63;5072953;28;20090;-82
2022/06/16 02:26:00;;;;;;;12.18;9.98;;;;;;;19.62;74.29;99787.47;5071242;28;20032;-81
2022/06/16 02:28:27;;;;;;;16.63;11.60;;;;;;;19.47;74.59;99795.00;5087237;28;20111;-82
2022/06/16 02:31:21;;;;;;;13.88;10.90;;;;;;;19.43;74.44;99786.50;5074704;28;20086;-82
2022/06/16 02:33:58;;;;;;;16.05;11.45;;;;;;;19.45;74.59;99792.59;5077345;28;20039;-82
2022/06/16 02:36:39;;;;;;;21.85;11.50;;;;;;;19.30;74.60;99776.59;5091528;28;20059;-82
2022/06/16 02:39:16;;;;;;;18.05;10.90;;;;;;;19.50;73.84;99792.22;5090754;28;20032;-82
2022/06/16 02:42:19;;;;;;;13.82;11.02;;;;;;;19.45;73.79;99798.25;5088282;28;20193;-82
2022/06/16 02:45:06;;;;;;;13.77;11.40;;;;;;;19.56;73.30;99803.25;4993872;28;20044;-82
2022/06/16 02:47:54;;;;;;;14.65;10.25;;;;;;;19.53;73.42;99802.00;5083134;28;20028;-78
2022/06/16 02:50:35;;;;;;;14.32;10.52;;;;;;;19.40;73.68;99804.25;5089424;28;20020;-86
2022/06/16 02:56:33;;;;;;;19.13;13.70;;;;;;;19.21;74.89;99788.25;5061640;28;20169;-81
2022/06/16 02:59:04;;;;;;;22.83;16.80;;;;;;;19.23;75.55;99794.34;5091101;28;20052;-83
2022/06/16 03:01:32;;;;;;;39.72;20.75;;;;;;;19.23;75.59;99797.16;5080279;28;20059;-88
2022/06/16 03:04:08;;;;;;;19.02;15.80;;;;;;;19.24;74.86;99810.16;5070941;28;20035;-88
2022/06/16 03:06:34;;;;;;;21.23;15.32;;;;;;;19.13;74.94;99803.56;5071913;28;20490;-86
2022/06/16 03:08:59;;;;;;;22.20;16.38;;;;;;;18.91;76.40;99808.91;5071933;28;20036;-87
2022/06/16 03:11:25;;;;;;;26.13;18.42;;;;;;;18.92;76.07;99819.84;5070532;28;20491;-85
2022/06/16 03:13:51;;;;;;;38.13;18.83;;;;;;;18.91;76.48;99817.41;5076687;28;20028;-86
2022/06/16 03:16:17;;;;;;;22.52;18.25;;;;;;;18.96;75.79;99807.75;5091033;28;20429;-86
2022/06/16 03:18:42;;;;;;;19.25;16.92;;;;;;;19.02;75.72;99814.72;5073777;28;20032;-87
2022/06/16 03:21:08;;;;;;;30.52;19.98;;;;;;;18.69;77.37;99810.59;5073082;28;20529;-83
2022/06/16 03:23:34;;;;;;;28.75;20.23;;;;;;;18.77;77.78;99820.84;5075341;28;20105;-82
2022/06/16 03:26:00;;;;;;;28.52;21.73;;;;;;;18.83;77.32;99819.31;5081593;28;20036;-77
2022/06/16 03:28:26;;;;;;;38.58;21.38;;;;;;;19.00;76.47;99809.44;5079817;28;20542;-80
2022/06/16 03:30:52;;;;;;;27.75;21.58;;;;;;;19.00;76.47;99823.59;5072874;28;20111;-80
2022/06/16 03:33:18;;;;;;;33.28;23.98;;;;;;;18.92;76.79;99811.34;5071199;28;20020;-84
2022/06/16 03:35:44;;;;;;;29.08;21.13;;;;;;;19.01;76.89;99815.94;5069646;28;20435;-85
2022/06/16 03:38:24;;;;;;;26.40;20.75;;;;;;;18.99;76.82;99824.78;5069950;28;20032;-84
2022/06/16 03:40:49;;;;;;;23.23;18.02;;;;;;;18.89;77.38;99817.78;5070080;28;20024;-86
2022/06/16 03:43:15;;;;;;;19.80;17.70;;;;;;;18.80;77.98;99820.06;5075568;28;20024;-81
2022/06/16 03:45:40;;;;;;;25.67;17.17;;;;;;;18.78;78.63;99817.63;5074492;28;20367;-84
2022/06/16 03:48:07;;;;;;;24.95;17.90;;;;;;;18.90;78.22;99824.28;5091313;28;20024;-83
2022/06/16 03:50:33;;;;;;;29.48;18.17;;;;;;;18.96;78.12;99824.75;5090055;28;20024;-80
2022/06/16 03:52:59;;;;;;;23.13;16.73;;;;;;;18.86;79.11;99824.22;5090353;28;20491;-78
2022/06/16 03:55:24;;;;;;;23.33;17.42;;;;;;;18.73;79.70;99823.63;5091954;28;20024;-78
2022/06/16 03:57:51;;;;;;;29.15;17.77;;;;;;;18.68;80.35;99826.78;5090215;28;20154;-79
2022/06/16 04:00:19;;;;;;;31.15;18.67;;;;;;;18.61;81.14;99827.50;5091678;28;20020;-79
2022/06/16 04:02:46;;;;;;;24.00;17.25;;;;;;;18.52;80.84;99799.47;5090284;28;20020;-80
2022/06/16 04:05:11;;;;;;;29.67;18.23;;;;;;;18.59;81.22;99821.41;5090296;28;20020;-81
2022/06/16 04:07:37;;;;;;;25.10;19.75;;;;;;;18.62;80.97;99816.97;5090399;28;20072;-80
2022/06/16 04:10:09;;;;;;;23.63;18.42;;;;;;;18.70;81.06;99838.56;5092147;28;20081;-88
2022/06/16 04:12:34;;;;;;;28.45;18.15;;;;;;;18.70;81.22;99832.88;5090643;28;20023;-88
2022/06/16 04:15:00;;;;;;;24.13;18.55;;;;;;;18.46;81.05;99783.16;5090781;28;20028;-88
2022/06/16 04:17:25;;;;;;;28.75;19.80;;;;;;;18.81;81.11;99833.03;5092026;28;20153;-88
2022/06/16 04:22:35;;;;;;;27.60;19.42;;;;;;;18.73;81.52;99839.81;5091883;28;20109;-89
2022/06/16 04:25:01;;;;;;;28.55;19.92;;;;;;;18.72;81.75;99836.16;5092127;28;20020;-88
2022/06/16 04:27:26;;;;;;;42.03;28.70;;;;;;;18.80;81.35;99839.91;5092120;28;20561;-88
2022/06/16 04:29:52;;;;;;;39.78;24.48;;;;;;;18.76;81.90;99842.72;5092501;28;20483;-88
2022/06/16 04:32:18;;;;;;;30.08;21.92;;;;;;;18.71;82.32;99834.53;5090510;28;20028;-88
2022/06/16 04:34:44;;;;;;;31.35;21.42;;;;;;;18.94;81.28;99853.47;5090353;28;20521;-88
2022/06/16 04:37:10;;;;;;;38.28;23.75;;;;;;;18.90;81.61;99835.59;5091749;28;20081;-88
2022/06/16 04:39:37;;;;;;;34.60;23.02;;;;;;;19.01;81.69;99847.13;5090456;28;20035;-88
2022/06/16 04:42:02;;;;;;;35.72;23.83;;;;;;;19.07;81.09;99837.09;5090605;28;20024;-88
2022/06/16 04:44:28;;;;;;;34.90;24.77;;;;;;;19.05;81.43;99843.13;5091729;28;20376;-88
2022/06/16 04:46:53;;;;;;;39.97;26.67;;;;;;;19.12;81.24;99848.09;5090484;28;20027;-88
2022/06/16 04:49:19;;;;;;;42.22;25.55;;;;;;;19.18;80.50;99840.84;5090528;28;20081;-89
2022/06/16 04:51:44;;;;;;;33.88;23.70;;;;;;;19.26;80.15;99847.47;5090564;28;20085;-88
2022/06/16 04:54:11;;;;;;;33.35;25.48;;;;;;;19.25;80.41;99845.84;5090987;28;20027;-88
2022/06/16 04:56:36;;;;;;;41.30;30.40;;;;;;;19.29;80.21;99846.69;5095228;28;20077;-89
2022/06/16 04:59:02;;;;;;;42.80;31.50;;;;;;;19.33;79.64;99846.72;5094469;28;20106;-87
2022/06/16 05:01:28;;;;;;;46.33;30.92;;;;;;;19.45;78.89;99849.31;5093872;28;20062;-88
2022/06/16 05:03:53;;;;;;;45.85;34.08;;;;;;;19.55;78.52;99842.13;5093993;28;20052;-88
2022/06/16 05:06:19;;;;;;;46.72;32.85;;;;;;;19.58;78.65;99843.38;5093978;28;20057;-88
2022/06/16 05:08:44;;;;;;;46.20;32.88;;;;;;;19.46;78.95;99848.09;5094107;28;20016;-88
2022/06/16 05:11:10;;;;;;;48.65;33.17;;;;;;;19.44;79.47;99842.00;5093735;28;20027;-88
2022/06/16 05:13:35;;;;;;;40.65;29.00;;;;;;;19.33;79.17;99821.22;5093797;28;20074;-88
2022/06/16 05:16:01;;;;;;;39.83;31.67;;;;;;;19.54;78.21;99834.00;5093757;28;20414;-87
2022/06/16 05:18:27;;;;;;;42.80;31.15;;;;;;;19.64;78.14;99841.81;5094793;28;20055;-88
2022/06/16 05:21:02;;;;;;;37.92;30.67;;;;;;;19.69;78.61;99832.97;5093475;28;20058;-87
2022/06/16 05:23:27;;;;;;;49.22;33.17;;;;;;;19.78;78.04;99841.97;5080315;28;20029;-84
2022/06/16 05:25:53;;;;;;;45.45;32.33;;;;;;;19.78;77.25;99833.44;5083102;28;20031;-79
2022/06/16 05:28:18;;;;;;;38.60;28.80;;;;;;;19.85;76.79;99831.91;5094532;28;20059;-80
2022/06/16 05:30:44;;;;;;;39.95;25.73;;;;;;;19.91;76.69;99836.84;5094342;28;20547;-79
2022/06/16 05:33:10;;;;;;;37.78;26.10;;;;;;;19.92;77.26;99841.34;5091536;28;20024;-80
2022/06/16 05:35:35;;;;;;;32.28;24.05;;;;;;;19.91;76.94;99848.19;5080608;28;20044;-77
2022/06/16 05:38:01;;;;;;;31.27;24.27;;;;;;;20.04;75.84;99848.75;5078581;28;20388;-77
2022/06/16 05:40:26;;;;;;;33.40;22.88;;;;;;;20.03;75.73;99855.66;5083758;28;20055;-77
2022/06/16 05:42:52;;;;;;;22.67;19.63;;;;;;;19.97;76.14;99847.84;5077752;28;20468;-77
2022/06/16 05:45:17;;;;;;;24.33;18.98;;;;;;;19.96;76.58;99849.06;5078179;28;20032;-77
2022/06/16 05:47:43;;;;;;;26.42;20.02;;;;;;;19.77;76.99;99846.00;5085530;28;20133;-77
2022/06/16 05:50:09;;;;;;;28.48;20.75;;;;;;;19.76;76.87;99847.22;5078937;28;20399;-77
2022/06/16 05:52:34;;;;;;;29.67;23.40;;;;;;;19.88;76.54;99857.50;5087928;28;20028;-77
2022/06/16 05:55:00;;;;;;;38.67;29.58;;;;;;;19.78;76.72;99844.00;5076717;28;20417;-77
2022/06/16 05:57:26;;;;;;;70.25;55.45;;;;;;;19.91;76.15;99853.88;5083071;28;20070;-77
2022/06/16 05:59:51;;;;;;;77.60;64.88;;;;;;;19.96;75.98;99849.88;5074316;28;20028;-77
2022/06/16 06:02:19;;;;;;;56.38;42.17;;;;;;;20.14;75.65;99860.59;5071773;28;20029;-76
2022/06/16 06:04:47;;;;;;;50.03;37.72;;;;;;;20.08;75.96;99865.81;5080815;28;20075;-75
2022/06/16 06:07:12;;;;;;;51.97;38.50;;;;;;;20.01;76.01;99857.25;5080549;28;20123;-76
2022/06/16 06:18:09;;;;;;;44.28;35.08;;;;;;;20.24;75.09;99859.06;5073007;28;20063;-76
2022/06/16 06:20:35;;;;;;;43.88;35.63;;;;;;;19.63;76.12;99865.72;5072900;28;20039;-76
2022/06/16 06:23:00;;;;;;;46.83;34.55;;;;;;;19.46;77.02;99867.97;5077932;28;20028;-75
2022/06/16 06:25:26;;;;;;;43.90;33.05;;;;;;;19.28;78.17;99875.41;5071474;28;20044;-74
2022/06/16 06:27:52;;;;;;;46.20;30.85;;;;;;;19.69;77.38;99875.53;5091838;28;20039;-74
2022/06/16 06:30:21;;;;;;;46.20;29.42;;;;;;;19.87;76.34;99880.56;5074314;28;20021;-73
2022/06/16 06:32:47;;;;;;;40.80;29.80;;;;;;;20.02;75.96;99873.06;5092700;28;20494;-77
2022/06/16 06:35:13;;;;;;;44.03;30.67;;;;;;;20.11;75.38;99879.25;5092821;28;20071;-76
2022/06/16 06:37:39;;;;;;;41.83;30.52;;;;;;;20.42;76.00;99873.44;5092667;28;20036;-74
2022/06/16 06:40:06;;;;;;;40.70;29.48;;;;;;;20.54;74.44;99872.28;5092743;28;20024;-77
2022/06/16 06:42:32;;;;;;;47.25;33.13;;;;;;;20.59;72.85;99867.06;5091213;28;20478;-80
2022/06/16 06:44:57;;;;;;;43.15;33.22;;;;;;;20.65;72.71;99867.50;5075859;28;20031;-76
2022/06/16 06:47:25;;;;;;;47.90;31.88;;;;;;;20.46;72.80;99866.56;5072317;28;20056;-76
2022/06/16 06:49:51;;;;;;;49.50;34.38;;;;;;;20.61;73.07;99878.06;5072381;28;20112;-75
2022/06/16 06:52:17;;;;;;;49.35;33.38;;;;;;;20.16;74.66;99866.72;5070861;28;20032;-75
2022/06/16 06:54:45;;;;;;;47.30;33.22;;;;;;;20.17;74.93;99859.84;5072388;28;20394;-75
2022/06/16 06:57:18;;;;;;;46.08;32.35;;;;;;;20.05;75.29;99846.72;5070989;28;20032;-77
2022/06/16 06:59:43;;;;;;;46.22;32.80;;;;;;;20.28;74.01;99848.56;5072365;28;20025;-78
2022/06/16 07:02:12;;;;;;;44.47;34.78;;;;;;;20.50;73.11;99854.41;5071878;28;20025;-73
2022/06/16 07:04:39;;;;;;;54.88;35.90;;;;;;;20.77;71.89;99869.25;5086511;28;20410;-75
2022/06/16 07:07:05;;;;;;;46.22;32.80;;;;;;;21.03;70.61;99859.66;5089047;28;20398;-75
2022/06/16 07:09:30;;;;;;;44.88;33.30;;;;;;;20.95;71.31;99860.03;5072040;28;20025;-77
2022/06/16 07:11:56;;;;;;;48.45;34.70;;;;;;;21.12;70.36;99867.03;5070543;28;20032;-78
2022/06/16 07:14:21;;;;;;;50.13;33.60;;;;;;;21.15;70.30;99857.69;5082673;28;20093;-76
2022/06/16 07:16:49;;;;;;;40.45;33.55;;;;;;;21.23;69.79;99862.22;5074363;28;20032;-76
2022/06/16 07:19:16;;;;;;;46.95;33.22;;;;;;;21.23;69.62;99859.38;5072728;28;20101;-76
2022/06/16 07:21:41;;;;;;;49.58;35.58;;;;;;;21.42;69.24;99858.22;5090381;28;20107;-76
2022/06/16 07:24:07;;;;;;;51.92;34.47;;;;;;;21.43;69.51;99856.22;5089231;28;20024;-75
2022/06/16 07:26:33;;;;;;;42.08;32.28;;;;;;;21.78;69.20;99857.59;5078931;28;20415;-74
2022/06/16 07:29:00;;;;;;;43.35;33.40;;;;;;;21.84;68.36;99849.44;5084619;28;20023;-75
2022/06/16 07:31:27;;;;;;;43.88;33.97;;;;;;;21.92;67.48;99851.09;5090351;28;20028;-75
2022/06/16 07:33:52;;;;;;;46.28;33.63;;;;;;;21.68;67.70;99853.47;5085609;28;20025;-75
2022/06/16 07:36:18;;;;;;;45.67;34.13;;;;;;;21.49;68.60;99846.06;5070152;28;20127;-78
2022/06/16 07:38:43;;;;;;;43.30;32.70;;;;;;;21.68;69.47;99855.53;5070569;28;20470;-73
2022/06/16 07:43:54;;;;;;;53.00;33.50;;;;;;;21.50;68.06;99846.91;5080554;28;20032;-74
2022/06/16 07:46:20;;;;;;;46.35;34.72;;;;;;;21.12;69.57;99838.59;5071625;28;20483;-74
2022/06/16 07:48:45;;;;;;;49.97;35.83;;;;;;;21.10;68.92;99847.50;5071406;28;20107;-73
2022/06/16 07:51:11;;;;;;;46.03;33.05;;;;;;;21.29;68.78;99843.53;5070264;28;20491;-74
2022/06/16 07:53:36;;;;;;;56.20;35.15;;;;;;;21.00;68.98;99854.78;5071040;28;20099;-72
2022/06/16 07:56:02;;;;;;;46.72;35.60;;;;;;;21.01;69.42;99847.09;5071331;28;20048;-72
2022/06/16 07:58:31;;;;;;;45.88;35.33;;;;;;;21.11;70.04;99857.66;5069719;28;20039;-74
2022/06/16 08:00:58;;;;;;;49.47;34.17;;;;;;;21.40;68.62;99859.84;5084764;28;20039;-74
2022/06/16 08:03:27;;;;;;;43.40;32.70;;;;;;;21.78;68.92;99868.16;5086514;28;20024;-74
2022/06/16 08:05:54;;;;;;;44.37;34.47;;;;;;;22.02;67.06;99860.84;5071091;28;20103;-75
2022/06/16 08:08:23;;;;;;;47.67;33.42;;;;;;;22.28;66.83;99858.88;5070985;28;20028;-75
2022/06/16 08:10:52;;;;;;;46.17;32.92;;;;;;;22.45;64.28;99865.81;5069589;28;20111;-75
2022/06/16 08:13:19;;;;;;;41.90;31.52;;;;;;;22.27;65.01;99871.50;5078609;28;20653;-75
2022/06/16 08:15:46;;;;;;;45.63;33.47;;;;;;;22.20;65.03;99860.88;5082793;28;20662;-75
2022/06/16 08:18:14;;;;;;;45.40;33.40;;;;;;;22.35;64.33;99860.91;5069944;28;20422;-75
2022/06/16 08:20:41;;;;;;;40.25;32.20;;;;;;;22.18;64.16;99866.19;5071092;28;20027;-75
2022/06/16 08:23:07;;;;;;;44.90;32.97;;;;;;;22.32;64.77;99856.84;5072921;28;20028;-75
2022/06/16 08:25:32;;;;;;;43.33;33.53;;;;;;;22.31;62.58;99855.22;5070220;28;20142;-73
2022/06/16 08:27:58;;;;;;;39.67;29.52;;;;;;;22.65;62.84;99854.00;5071198;28;20020;-75
2022/06/16 08:30:24;;;;;;;40.47;30.15;;;;;;;22.84;61.18;99861.28;5093240;28;20085;-72
2022/06/16 08:32:51;;;;;;;43.83;29.80;;;;;;;23.36;59.36;99857.91;5093186;28;20462;-73
2022/06/16 08:35:17;;;;;;;47.30;30.20;;;;;;;23.37;61.21;99856.69;5073524;28;20052;-75
2022/06/16 08:37:43;;;;;;;41.20;31.75;;;;;;;23.43;63.29;99848.53;5074979;28;20106;-73
2022/06/16 08:40:10;;;;;;;40.30;30.98;;;;;;;23.02;61.47;99846.19;5073501;28;20021;-77
2022/06/16 08:42:51;;;;;;;41.92;31.00;;;;;;;22.72;62.46;99860.50;5074510;28;20105;-74
2022/06/16 08:45:25;;;;;;;41.65;31.08;;;;;;;22.58;62.77;99855.66;5074359;28;20479;-74
2022/06/16 08:48:28;;;;;;;39.00;32.92;;;;;;;22.70;63.49;99859.31;5089825;28;20028;-73
2022/06/16 08:50:56;;;;;;;39.20;31.50;;;;;;;22.44;62.95;99856.44;5094669;28;20539;-72
2022/06/16 08:53:30;;;;;;;38.70;31.58;;;;;;;22.65;63.29;99851.16;5082281;28;20429;-72
2022/06/16 08:56:03;;;;;;;44.97;30.35;;;;;;;22.78;61.85;99843.78;5094017;28;20052;-74
2022/06/16 08:58:37;;;;;;;40.00;31.17;;;;;;;22.64;62.85;99850.34;5077783;28;20032;-73
2022/06/16 09:01:24;;;;;;;39.03;31.55;;;;;;;22.84;61.29;99847.88;5092916;28;20028;-72
2022/06/16 09:04:10;;;;;;;38.60;30.85;;;;;;;22.72;61.22;99848.28;5083869;28;20040;-74
2022/06/16 09:06:48;;;;;;;36.80;31.00;;;;;;;23.04;60.29;99833.13;5073125;28;20417;-75
2022/06/16 09:12:27;;;;;;;;;;;;;;;23.80;57.74;99829.16;5075076;28;20038;-72
2022/06/16 09:15:11;;;;;;;35.47;29.42;;;;;;;23.69;57.02;99820.66;5074738;28;20356;-76
2022/06/16 09:18:07;;;;;;;39.13;28.70;;;;;;;23.77;59.61;99816.53;5074579;28;20107;-77
2022/06/16 09:21:03;;;;;;;33.85;27.55;;;;;;;24.37;55.66;99824.25;5072865;28;20029;-84
2022/06/16 09:23:34;;;;;;;34.90;27.98;;;;;;;24.41;57.24;99819.34;5040262;28;20033;-79
2022/06/16 09:26:24;;;;;;;35.00;26.42;;;;;;;24.25;54.18;99811.31;5074290;28;20166;-78
2022/06/16 09:29:01;;;;;;;33.88;26.67;;;;;;;24.33;54.59;99814.91;5085083;28;20388;-78
2022/06/16 09:31:43;;;;;;;31.98;26.73;;;;;;;24.38;55.10;99820.19;5092050;28;20031;-75
2022/06/16 09:34:20;;;;;;;32.78;24.92;;;;;;;24.27;55.51;99805.97;5081898;28;20028;-78
2022/06/16 09:36:53;;;;;;;36.17;25.45;;;;;;;24.46;54.58;99809.50;5092547;28;20123;-78
2022/06/16 09:39:28;;;;;;;31.20;24.88;;;;;;;24.53;55.09;99809.41;5094125;28;20032;-79
2022/06/16 09:42:32;;;;;;;31.90;26.45;;;;;;;24.70;53.54;99807.63;5091873;28;20376;-78
2022/06/16 09:45:13;;;;;;;32.88;27.40;;;;;;;25.01;53.07;99804.88;5069904;28;20453;-76
2022/06/16 09:47:54;;;;;;;31.55;26.38;;;;;;;25.02;53.27;99791.38;5075517;28;20035;-79
2022/06/16 09:50:25;;;;;;;30.08;26.20;;;;;;;25.18;52.26;99805.06;5093118;28;20028;-75
2022/06/16 09:53:03;;;;;;;35.10;27.00;;;;;;;25.22;51.75;99792.34;5092408;28;20032;-78
2022/06/16 09:55:29;;;;;;;29.05;25.95;;;;;;;25.22;51.32;99803.78;5093771;28;20024;-83
2022/06/16 09:58:06;;;;;;;35.03;26.95;;;;;;;25.29;51.41;99790.66;5091950;28;20415;-77
2022/06/16 10:00:34;;;;;;;38.20;27.48;;;;;;;25.44;51.11;99792.06;5092098;28;20046;-78
2022/06/16 10:03:16;;;;;;;27.73;24.42;;;;;;;25.43;51.82;99781.03;5092117;28;20082;-78
2022/06/16 10:06:06;;;;;;;31.77;23.50;;;;;;;25.46;51.35;99794.47;5093731;28;20024;-78
2022/06/16 10:08:42;;;;;;;30.75;23.92;;;;;;;25.55;51.23;99789.06;5092568;28;20032;-77
2022/06/16 10:11:20;;;;;;;30.80;24.25;;;;;;;25.87;50.87;99784.94;5077368;28;20115;-78
2022/06/16 10:14:14;;;;;;;26.80;22.15;;;;;;;25.98;50.63;99783.94;5092147;28;20024;-78
2022/06/16 10:17:02;;;;;;;26.75;22.92;;;;;;;26.18;50.53;99793.44;5091872;28;20039;-78
2022/06/16 10:19:32;;;;;;;31.23;22.63;;;;;;;26.32;49.61;99783.00;5092253;28;20028;-78
2022/06/16 10:22:00;;;;;;;24.52;19.63;;;;;;;26.41;47.72;99788.97;5089914;28;20149;-76
2022/06/16 10:24:32;;;;;;;31.63;21.27;;;;;;;26.39;49.15;99784.94;5074373;28;20032;-78
2022/06/16 10:26:59;;;;;;;26.02;21.02;;;;;;;26.19;48.38;99766.44;5072910;28;20029;-75
2022/06/16 10:29:32;;;;;;;23.08;19.60;;;;;;;26.34;47.03;99774.78;5082066;28;20553;-77
2022/06/16 10:31:59;;;;;;;28.80;21.67;;;;;;;26.55;47.67;99769.91;5075139;28;20032;-77
2022/06/16 10:34:32;;;;;;;22.42;17.50;;;;;;;26.78;46.89;99769.81;5072276;28;20507;-78
2022/06/16 10:37:14;;;;;;;22.95;17.13;;;;;;;26.87;45.23;99768.47;5071161;28;20036;-76
2022/06/16 10:39:46;;;;;;;19.15;17.17;;;;;;;26.79;46.40;99762.06;5076421;28;20065;-77
2022/06/16 10:42:11;;;;;;;24.55;18.45;;;;;;;27.01;47.38;99762.44;5082928;28;20433;-75
2022/06/16 10:44:38;;;;;;;23.58;17.77;;;;;;;26.97;45.85;99749.41;5070612;28;20123;-79
2022/06/16 10:47:07;;;;;;;21.15;18.95;;;;;;;27.05;46.25;99753.75;5072228;28;20024;-79
2022/06/16 10:49:39;;;;;;;17.27;15.50;;;;;;;27.06;45.25;99741.03;5070958;28;20515;-79
2022/06/16 10:52:20;;;;;;;30.85;16.45;;;;;;;27.13;44.80;99751.53;5081554;28;20461;-80
2022/06/16 10:55:10;;;;;;;27.20;16.05;;;;;;;27.22;44.02;99748.88;5091029;28;20082;-79
2022/06/16 10:57:58;;;;;;;27.35;17.55;;;;;;;27.42;46.28;99743.09;5090982;28;20032;-79
2022/06/16 11:00:24;;;;;;;18.75;16.80;;;;;;;27.72;44.86;99746.16;5090982;28;20060;-79
2022/06/16 11:03:13;;;;;;;16.20;14.45;;;;;;;27.67;43.86;99738.88;5090845;28;20082;-79
2022/06/16 11:05:55;;;;;;;21.02;15.10;;;;;;;27.42;43.08;99733.69;5092057;28;20030;-79
2022/06/16 11:08:23;;;;;;;19.83;16.23;;;;;;;27.40;43.89;99724.72;5092274;28;20479;-79
2022/06/16 11:10:57;;;;;;;23.25;15.48;;;;;;;27.28;44.09;99727.03;5090779;28;20052;-79
2022/06/16 11:13:33;;;;;;;22.38;15.25;;;;;;;27.29;44.35;99719.22;5090260;28;20020;-79
2022/06/16 11:15:59;;;;;;;16.85;15.05;;;;;;;27.35;44.33;99716.63;5075562;28;20032;-79
2022/06/16 11:18:29;;;;;;;20.55;17.15;;;;;;;27.70;45.16;99723.63;5071979;28;20058;-79
2022/06/16 11:20:58;;;;;;;20.30;15.40;;;;;;;27.63;44.19;99692.19;5070430;28;20485;-78
2022/06/16 11:23:25;;;;;;;18.73;15.15;;;;;;;27.86;42.75;99714.19;5070124;28;20474;-79
2022/06/16 11:26:24;;;;;;;17.17;14.15;;;;;;;27.73;43.13;99710.41;5069755;28;20055;-80
2022/06/16 11:29:18;;;;;;;21.65;13.30;;;;;;;27.99;41.98;99710.59;5070694;28;20032;-79
2022/06/16 11:31:46;;;;;;;16.08;13.90;;;;;;;28.29;41.77;99702.88;5076516;28;20028;-79
2022/06/16 11:34:17;;;;;;;15.20;13.23;;;;;;;28.29;40.96;99702.88;5090879;28;20016;-80
2022/06/16 11:36:49;;;;;;;16.08;14.38;;;;;;;28.47;42.63;99702.38;5075735;28;20626;-80
2022/06/16 11:40:05;;;;;;;14.77;13.27;;;;;;;28.67;40.60;99698.53;5070200;28;20024;-79
2022/06/16 11:42:58;;;;;;;20.85;13.18;;;;;;;28.61;39.78;99698.28;5036554;28;20032;-79
2022/06/16 11:45:33;;;;;;;15.68;13.52;;;;;;;28.57;39.68;99688.94;5070078;28;20116;-80
2022/06/16 11:48:26;;;;;;;15.95;14.27;;;;;;;28.41;41.01;99681.16;5070015;28;20037;-79
2022/06/16 11:50:57;;;;;;;19.38;15.45;;;;;;;28.56;40.67;99681.56;5040378;28;20041;-79
2022/06/16 11:53:41;;;;;;;22.08;15.35;;;;;;;28.65;41.60;99687.47;5071117;28;20059;-80
2022/06/16 11:56:14;;;;;;;20.75;15.98;;;;;;;28.22;41.93;99677.16;5069692;28;20040;-79
2022/06/16 11:59:16;;;;;;;20.05;15.27;;;;;;;28.63;41.70;99680.56;5069866;28;20036;-79
2022/06/16 12:01:48;;;;;;;33.22;15.40;;;;;;;28.73;40.45;99679.44;5069596;28;20028;-79
2022/06/16 12:04:19;;;;;;;17.65;14.73;;;;;;;28.71;39.60;99681.97;5070040;28;20170;-79
2022/06/16 12:07:09;;;;;;;16.30;14.60;;;;;;;28.80;39.44;99681.31;5074925;28;20427;-79